Time;durP1;ratioP1;P1;durP2;ratioP2;P2;SDS_P1;SDS_P2;PMS_P1;PMS_P2;Temp;Humidity;BMP_temperature;BMP_pressure;BME280_temperature;BME280_humidity;BME280_pressure;Samples;Min_cycle;Max_cycle;Signal;HPM_P1;HPM_P2
2021/11/05 00:00:30;;;;;;;31.60;23.25;;;;;;;13.72;85.67;101707.38;1758078;80;20935;-78
2021/11/05 00:02:57;;;;;;;35.50;24.02;;;;;;;13.75;85.61;101716.45;1757860;81;21139;-79
2021/11/05 00:05:26;;;;;;;28.83;21.30;;;;;;;13.77;85.48;101709.30;1758001;80;20920;-78
2021/11/05 00:07:53;;;;;;;28.80;22.85;;;;;;;13.78;85.29;101706.56;1749631;80;20893;-77
2021/11/05 00:10:20;;;;;;;27.50;21.30;;;;;;;13.79;85.29;101703.48;1744636;81;20897;-78
2021/11/05 00:12:47;;;;;;;29.30;20.62;;;;;;;13.81;85.27;101699.81;1744622;82;20933;-78
2021/11/05 00:15:14;;;;;;;28.57;21.33;;;;;;;13.84;85.24;101701.42;1744429;80;21141;-77
2021/11/05 00:17:42;;;;;;;29.18;20.90;;;;;;;13.85;85.24;101700.03;1744465;82;21469;-78
2021/11/05 00:20:09;;;;;;;25.62;21.57;;;;;;;13.85;85.26;101710.58;1744429;82;20916;-77
2021/11/05 00:22:36;;;;;;;31.50;23.02;;;;;;;13.85;85.31;101712.34;1744487;82;20865;-78
2021/11/05 00:25:06;;;;;;;31.65;25.50;;;;;;;13.85;85.38;101717.17;1744533;81;21423;-77
2021/11/05 00:27:38;;;;;;;31.27;24.40;;;;;;;13.86;85.40;101718.02;1744635;82;21166;-77
2021/11/05 00:30:07;;;;;;;33.35;25.40;;;;;;;13.88;85.35;101713.03;1744532;82;20889;-77
2021/11/05 00:32:35;;;;;;;44.03;31.10;;;;;;;13.89;85.38;101712.11;1744600;80;20861;-78
2021/11/05 00:35:01;;;;;;;40.25;29.85;;;;;;;13.91;85.37;101709.84;1744734;82;20968;-79
2021/11/05 00:37:28;;;;;;;40.65;31.15;;;;;;;13.91;85.35;101709.84;1744447;82;21434;-78
2021/11/05 00:39:55;;;;;;;48.50;34.10;;;;;;;13.94;85.43;101705.70;1744772;82;21524;-77
2021/11/05 00:42:22;;;;;;;52.53;36.93;;;;;;;13.97;85.30;101702.91;1744567;81;20905;-77
2021/11/05 00:44:49;;;;;;;49.80;37.75;;;;;;;13.98;85.21;101696.68;1744793;80;20984;-77
2021/11/05 00:47:16;;;;;;;48.92;36.95;;;;;;;14.00;85.16;101690.85;1744440;81;20929;-77
2021/11/05 00:49:44;;;;;;;52.10;38.70;;;;;;;14.01;85.11;101697.37;1744511;82;20924;-78
2021/11/05 00:52:11;;;;;;;57.17;39.42;;;;;;;14.03;85.09;101694.66;1744480;82;21094;-77
2021/11/05 00:54:37;;;;;;;55.58;36.88;;;;;;;14.04;85.12;101692.38;1744720;82;20933;-78
2021/11/05 00:57:05;;;;;;;53.78;37.88;;;;;;;14.07;85.05;101693.52;1744471;80;21328;-77
2021/11/05 00:59:32;;;;;;;52.38;37.45;;;;;;;14.06;85.02;101695.78;1744424;81;20977;-78
2021/11/05 01:01:59;;;;;;;54.35;39.08;;;;;;;14.04;85.03;101695.86;1744489;81;21068;-76
2021/11/05 01:04:26;;;;;;;60.35;41.80;;;;;;;14.04;85.09;101694.55;1744896;81;21116;-77
2021/11/05 01:06:54;;;;;;;64.20;43.92;;;;;;;14.05;85.14;101698.02;1744251;82;20944;-75
2021/11/05 01:09:21;;;;;;;70.85;48.98;;;;;;;14.04;85.17;101693.22;1744454;82;20933;-78
2021/11/05 01:11:48;;;;;;;81.32;51.08;;;;;;;14.03;85.19;101694.17;1744564;82;20960;-78
2021/11/05 01:14:15;;;;;;;72.78;50.08;;;;;;;14.04;85.25;101689.74;1744469;82;20924;-75
2021/11/05 01:16:43;;;;;;;79.42;53.02;;;;;;;14.05;85.29;101696.26;1744562;82;21930;-75
2021/11/05 01:19:10;;;;;;;66.97;46.92;;;;;;;14.06;85.23;101699.73;1744391;81;20976;-78
2021/11/05 01:21:37;;;;;;;67.25;44.48;;;;;;;14.06;85.24;101699.27;1744411;81;20869;-78
2021/11/05 01:24:05;;;;;;;56.68;39.20;;;;;;;14.06;85.22;101701.90;1740184;81;20980;-78
2021/11/05 01:26:32;;;;;;;61.37;42.78;;;;;;;14.08;85.16;101698.70;1736050;82;20893;-81
2021/11/05 01:28:59;;;;;;;54.30;39.73;;;;;;;14.08;85.16;101686.00;1736039;82;21785;-78
2021/11/05 01:31:26;;;;;;;53.38;39.35;;;;;;;14.07;85.10;101697.02;1736049;81;20853;-78
2021/11/05 01:33:53;;;;;;;53.65;41.55;;;;;;;14.07;85.03;101698.34;1736021;82;20920;-79
2021/11/05 01:36:20;;;;;;;61.37;41.02;;;;;;;14.08;85.03;101700.03;1736203;82;20971;-79
2021/11/05 01:38:47;;;;;;;53.52;37.78;;;;;;;14.10;84.97;101695.52;1736162;81;20853;-78
2021/11/05 01:41:14;;;;;;;46.77;36.15;;;;;;;14.13;84.83;101699.76;1736365;82;21118;-79
2021/11/05 01:43:43;;;;;;;52.67;37.85;;;;;;;14.13;84.75;101702.40;1735956;81;20948;-79
2021/11/05 01:46:10;;;;;;;49.63;35.40;;;;;;;14.12;84.70;101700.72;1736429;81;20968;-78
2021/11/05 01:48:37;;;;;;;50.58;35.45;;;;;;;14.14;84.50;101696.65;1736016;81;21000;-78
2021/11/05 01:51:04;;;;;;;45.60;34.55;;;;;;;14.13;84.46;101700.23;1736264;82;20995;-79
2021/11/05 01:53:31;;;;;;;47.80;35.60;;;;;;;14.13;84.37;101686.57;1736165;82;21124;-79
2021/11/05 01:55:58;;;;;;;42.45;33.15;;;;;;;14.14;84.26;101692.69;1736222;82;20956;-78
2021/11/05 01:58:26;;;;;;;44.58;32.83;;;;;;;14.13;84.19;101685.25;1736097;82;20972;-78
2021/11/05 02:00:52;;;;;;;39.53;30.65;;;;;;;14.14;84.14;101689.61;1736088;82;21415;-78
2021/11/05 02:03:20;;;;;;;35.78;27.58;;;;;;;14.14;83.97;101686.09;1735909;82;21000;-78
2021/11/05 02:05:49;;;;;;;40.90;29.85;;;;;;;14.10;83.88;101684.97;1736220;82;21111;-79
2021/11/05 02:08:15;;;;;;;39.75;27.90;;;;;;;14.09;83.94;101683.73;1692176;82;20928;-77
2021/11/05 02:10:45;;;;;;;36.53;27.40;;;;;;;14.07;83.94;101674.60;1692756;82;20952;-79
2021/11/05 02:13:13;;;;;;;35.13;27.70;;;;;;;14.04;83.90;101680.03;1736131;82;20964;-76
2021/11/05 02:15:41;;;;;;;36.35;26.50;;;;;;;14.03;83.90;101673.55;1736002;82;21564;-76
2021/11/05 02:18:08;;;;;;;37.20;28.92;;;;;;;14.02;83.96;101667.87;1735929;82;21186;-77
2021/11/05 02:22:10;;;;;;;39.13;28.65;;;;;;;14.07;83.97;101671.09;1798482;79;22490;-78
2021/11/05 02:24:37;;;;;;;36.13;28.50;;;;;;;14.01;83.96;101668.36;1758395;80;20920;-77
2021/11/05 02:27:05;;;;;;;39.75;28.98;;;;;;;14.02;83.96;101670.52;1758406;81;21992;-78
2021/11/05 02:29:32;;;;;;;41.77;30.15;;;;;;;14.01;83.97;101673.63;1758750;81;20919;-78
2021/11/05 02:32:00;;;;;;;41.50;27.90;;;;;;;14.01;84.02;101668.83;1758297;81;20876;-77
2021/11/05 02:34:27;;;;;;;39.53;29.40;;;;;;;14.00;84.14;101678.51;1758381;81;20943;-77
2021/11/05 02:36:53;;;;;;;39.60;29.45;;;;;;;13.98;84.20;101672.47;1758594;81;20944;-78
2021/11/05 02:39:21;;;;;;;40.30;29.87;;;;;;;13.99;84.30;101675.98;1758138;81;21109;-78
2021/11/05 02:41:49;;;;;;;38.80;27.87;;;;;;;13.99;84.37;101674.66;1758421;80;20882;-79
2021/11/05 02:44:16;;;;;;;37.60;28.05;;;;;;;14.00;84.39;101678.98;1758516;80;20939;-78
2021/11/05 02:46:43;;;;;;;38.60;29.27;;;;;;;14.01;84.47;101687.30;1758429;81;20979;-79
2021/11/05 02:49:10;;;;;;;41.58;29.65;;;;;;;14.01;84.41;101678.91;1758159;81;21083;-80
2021/11/05 02:51:38;;;;;;;40.48;27.85;;;;;;;14.03;84.45;101677.51;1758311;80;21137;-79
2021/11/05 02:54:05;;;;;;;38.60;29.90;;;;;;;14.02;84.50;101674.00;1758490;81;20936;-78
2021/11/05 02:56:34;;;;;;;44.50;30.08;;;;;;;14.03;84.59;101678.35;1758610;80;20944;-80
2021/11/05 02:59:01;;;;;;;44.35;31.37;;;;;;;14.06;84.56;101676.84;1759161;81;20893;-79
2021/11/05 03:01:28;;;;;;;51.28;35.25;;;;;;;14.07;84.65;101666.69;1761027;81;20978;-79
2021/11/05 03:04:04;;;;;;;45.67;32.80;;;;;;;14.08;84.70;101670.17;1761253;80;21124;-78
2021/11/05 03:06:38;;;;;;;50.25;32.15;;;;;;;14.10;84.78;101680.16;1761877;80;20826;-79
2021/11/05 03:09:14;;;;;;;43.48;30.82;;;;;;;14.10;84.85;101675.73;1759025;80;20916;-79
2021/11/05 03:11:44;;;;;;;43.58;32.55;;;;;;;14.13;84.96;101684.41;1758249;81;21515;-80
2021/11/05 03:14:12;;;;;;;45.95;33.45;;;;;;;14.15;85.05;101679.89;1758260;81;20967;-79
2021/11/05 03:16:39;;;;;;;48.10;34.33;;;;;;;14.15;85.06;101683.38;1758503;81;21154;-80
2021/11/05 03:19:08;;;;;;;45.73;35.17;;;;;;;14.16;85.13;101673.67;1758119;80;20971;-77
2021/11/05 03:21:35;;;;;;;46.92;35.17;;;;;;;14.18;85.15;101659.92;1749118;81;20912;-78
2021/11/05 03:24:03;;;;;;;47.83;33.95;;;;;;;14.19;85.19;101665.12;1745058;82;21471;-77
2021/11/05 03:26:30;;;;;;;46.90;32.55;;;;;;;14.20;85.26;101662.00;1745413;82;21453;-78
2021/11/05 03:28:57;;;;;;;57.98;34.98;;;;;;;14.19;85.24;101651.92;1745213;82;21500;-77
2021/11/05 03:31:23;;;;;;;42.15;30.45;;;;;;;14.19;85.27;101651.08;1745357;82;20960;-76
2021/11/05 03:33:50;;;;;;;50.30;33.00;;;;;;;14.19;85.37;101647.13;1744568;82;20849;-77
2021/11/05 03:36:17;;;;;;;46.30;32.80;;;;;;;14.17;85.43;101651.64;1744982;82;21434;-78
2021/11/05 03:38:44;;;;;;;50.63;33.70;;;;;;;14.18;85.44;101655.48;1744566;82;20905;-78
2021/11/05 03:41:11;;;;;;;47.35;34.40;;;;;;;14.19;85.40;101655.88;1744491;82;21135;-79
2021/11/05 03:43:39;;;;;;;50.20;35.17;;;;;;;14.20;85.39;101652.77;1744477;82;20913;-79
2021/11/05 03:46:06;;;;;;;45.33;33.13;;;;;;;14.23;85.33;101648.66;1744818;80;21424;-79
2021/11/05 03:48:38;;;;;;;44.05;31.12;;;;;;;14.23;85.29;101648.66;1744761;80;20912;-78
2021/11/05 03:51:06;;;;;;;47.40;34.40;;;;;;;14.21;85.28;101652.69;1745002;82;21529;-79
2021/11/05 03:53:33;;;;;;;41.73;31.60;;;;;;;14.21;85.27;101643.45;1744531;82;21135;-80
2021/11/05 03:55:59;;;;;;;43.30;32.05;;;;;;;14.21;85.28;101647.41;1744828;82;20882;-78
2021/11/05 03:58:26;;;;;;;46.45;32.53;;;;;;;14.22;85.24;101647.78;1744658;82;21004;-78
2021/11/05 04:00:53;;;;;;;43.85;32.98;;;;;;;14.25;85.17;101646.30;1744695;82;21023;-79
2021/11/05 04:03:21;;;;;;;42.27;31.45;;;;;;;14.26;85.05;101635.27;1744737;82;20893;-80
2021/11/05 04:05:48;;;;;;;40.40;30.48;;;;;;;14.26;84.99;101638.75;1744765;82;21147;-78
2021/11/05 04:08:16;;;;;;;34.40;27.95;;;;;;;14.27;84.77;101639.59;1744737;80;20949;-80
2021/11/05 04:10:46;;;;;;;42.58;31.10;;;;;;;14.23;84.66;101644.22;1744524;82;21445;-77
2021/11/05 04:13:14;;;;;;;40.88;30.35;;;;;;;14.21;84.69;101646.57;1744466;80;21000;-77
2021/11/05 04:15:41;;;;;;;42.55;30.85;;;;;;;14.18;84.75;101645.41;1744622;82;21414;-79
2021/11/05 04:18:10;;;;;;;39.70;29.20;;;;;;;14.15;84.84;101650.41;1744713;82;21161;-80
2021/11/05 04:20:37;;;;;;;37.93;30.02;;;;;;;14.15;84.90;101658.80;1745391;81;20913;-79
2021/11/05 04:23:08;;;;;;;47.53;33.00;;;;;;;14.15;84.87;101661.43;1757954;80;21421;-80
2021/11/05 04:25:34;;;;;;;43.98;32.03;;;;;;;14.13;84.90;101661.51;1757008;80;21006;-80
2021/11/05 04:28:03;;;;;;;44.13;32.90;;;;;;;14.14;84.90;101671.59;1757972;81;20964;-78
2021/11/05 04:30:30;;;;;;;44.95;32.95;;;;;;;14.15;84.89;101669.34;1758269;81;21065;-79
2021/11/05 04:32:57;;;;;;;44.25;34.35;;;;;;;14.16;84.80;101671.03;1757806;80;21022;-79
2021/11/05 04:35:24;;;;;;;48.15;34.63;;;;;;;14.13;84.79;101661.51;1757993;81;20947;-79
2021/11/05 04:37:51;;;;;;;45.58;35.33;;;;;;;14.13;84.76;101663.30;1758046;81;21509;-79
2021/11/05 04:40:18;;;;;;;48.90;35.75;;;;;;;14.10;84.82;101652.47;1758571;80;20857;-80
2021/11/05 04:42:45;;;;;;;52.10;36.42;;;;;;;14.08;84.82;101663.09;1757972;81;21114;-80
2021/11/05 04:45:12;;;;;;;52.50;34.85;;;;;;;14.08;84.87;101664.89;1758274;81;21423;-78
2021/11/05 04:47:39;;;;;;;53.10;36.53;;;;;;;14.06;85.00;101667.61;1758328;81;20852;-79
2021/11/05 04:50:07;;;;;;;48.60;35.38;;;;;;;14.03;85.02;101662.52;1757883;81;20925;-78
2021/11/05 04:52:36;;;;;;;50.03;36.03;;;;;;;14.02;85.07;101667.41;1758172;81;20900;-79
2021/11/05 04:55:04;;;;;;;45.48;33.05;;;;;;;14.03;85.12;101670.91;1758324;81;21102;-79
2021/11/05 04:57:32;;;;;;;48.38;34.48;;;;;;;14.04;85.13;101671.28;1757857;80;20924;-80
2021/11/05 05:00:00;;;;;;;44.85;32.15;;;;;;;14.05;85.12;101676.92;1758319;81;20860;-79
2021/11/05 05:02:27;;;;;;;43.38;31.97;;;;;;;14.05;85.14;101676.48;1758241;81;21351;-80
2021/11/05 05:04:54;;;;;;;42.45;30.37;;;;;;;14.07;85.08;101681.20;1757920;80;20897;-78
2021/11/05 05:07:21;;;;;;;42.08;29.63;;;;;;;14.07;85.05;101676.36;1758093;81;21433;-80
2021/11/05 05:09:48;;;;;;;41.05;29.15;;;;;;;14.08;85.03;101680.72;1757943;80;20919;-78
2021/11/05 05:12:14;;;;;;;35.52;27.58;;;;;;;14.10;84.99;101676.20;1757945;81;20975;-79
2021/11/05 05:14:42;;;;;;;33.48;27.15;;;;;;;14.10;84.92;101677.05;1757795;81;20937;-80
2021/11/05 05:17:08;;;;;;;41.20;30.23;;;;;;;14.13;84.88;101679.13;1758277;81;20892;-77
2021/11/05 05:19:37;;;;;;;38.28;28.62;;;;;;;14.15;84.85;101675.94;1741048;81;21944;-75
2021/11/05 05:22:04;;;;;;;40.83;28.20;;;;;;;14.17;84.81;101668.79;1757820;81;20967;-79
2021/11/05 05:24:31;;;;;;;40.80;29.23;;;;;;;14.22;84.74;101666.72;1758001;81;20933;-81
2021/11/05 05:26:58;;;;;;;38.45;30.17;;;;;;;14.24;84.65;101673.60;1757720;81;20857;-79
2021/11/05 05:29:25;;;;;;;38.33;29.15;;;;;;;14.27;84.55;101681.80;1757963;81;20880;-80
2021/11/05 05:31:52;;;;;;;35.75;29.60;;;;;;;14.30;84.47;101680.33;1757869;80;21178;-80
2021/11/05 05:34:19;;;;;;;33.15;26.15;;;;;;;14.33;84.35;101677.97;1758011;81;20880;-79
2021/11/05 05:36:46;;;;;;;33.28;26.10;;;;;;;14.35;84.22;101682.22;1757903;81;20923;-80
2021/11/05 05:39:14;;;;;;;35.30;26.82;;;;;;;14.38;84.11;101673.27;1758051;81;20916;-80
2021/11/05 05:41:40;;;;;;;33.10;27.07;;;;;;;14.39;83.97;101671.86;1757762;80;20985;-80
2021/11/05 05:44:07;;;;;;;28.17;22.67;;;;;;;14.41;83.88;101669.98;1758018;80;21105;-79
2021/11/05 05:46:35;;;;;;;27.87;23.22;;;;;;;14.39;83.82;101666.58;1757740;80;20983;-77
2021/11/05 05:49:02;;;;;;;32.50;25.75;;;;;;;14.42;83.78;101679.59;1758076;81;20892;-76
2021/11/05 05:51:33;;;;;;;29.63;22.20;;;;;;;14.45;83.78;101676.78;1757846;80;21402;-80
2021/11/05 05:53:59;;;;;;;27.93;21.27;;;;;;;14.50;83.64;101681.78;1758201;81;20932;-80
2021/11/05 05:56:26;;;;;;;30.62;22.98;;;;;;;14.54;83.54;101671.88;1757982;81;21114;-76
2021/11/05 05:58:54;;;;;;;32.05;24.55;;;;;;;14.59;83.40;101683.06;1757639;81;20971;-80
2021/11/05 06:01:21;;;;;;;31.80;23.15;;;;;;;14.63;83.19;101677.95;1757550;81;20912;-74
2021/11/05 06:03:48;;;;;;;30.95;23.75;;;;;;;14.66;83.02;101666.75;1758267;81;20943;-75
2021/11/05 06:06:15;;;;;;;34.58;24.63;;;;;;;14.70;82.90;101677.98;1757782;81;20999;-76
2021/11/05 06:08:42;;;;;;;37.93;27.60;;;;;;;14.74;82.79;101674.22;1757905;80;21098;-75
2021/11/05 06:11:10;;;;;;;30.95;23.70;;;;;;;14.79;82.66;101679.22;1757618;80;20936;-77
2021/11/05 06:13:38;;;;;;;25.68;21.10;;;;;;;14.82;82.50;101677.22;1757678;81;21418;-75
2021/11/05 06:16:07;;;;;;;26.30;20.72;;;;;;;14.87;82.16;101679.58;1757678;81;21003;-75
2021/11/05 06:18:34;;;;;;;24.85;20.70;;;;;;;14.87;82.01;101680.45;1758002;81;20955;-77
2021/11/05 06:21:00;;;;;;;24.20;20.15;;;;;;;14.89;82.01;101679.86;1756525;81;21151;-76
2021/11/05 06:23:27;;;;;;;23.62;18.67;;;;;;;14.93;81.97;101687.98;1757190;81;20973;-76
2021/11/05 06:25:56;;;;;;;23.27;19.12;;;;;;;15.00;81.87;101687.61;1757990;81;21366;-77
2021/11/05 06:28:23;;;;;;;30.10;22.35;;;;;;;15.04;81.54;101686.00;1757688;80;20979;-76
2021/11/05 06:30:50;;;;;;;27.37;23.02;;;;;;;15.09;81.46;101689.20;1757884;80;20857;-77
2021/11/05 06:33:18;;;;;;;32.58;24.18;;;;;;;15.17;81.20;101682.62;1758054;81;22142;-75
2021/11/05 06:35:47;;;;;;;27.30;21.40;;;;;;;15.20;81.11;101683.73;1757720;81;20947;-77
2021/11/05 06:38:14;;;;;;;24.43;19.90;;;;;;;15.25;80.88;101690.44;1740912;81;20975;-75
2021/11/05 06:40:41;;;;;;;23.90;20.92;;;;;;;15.28;80.72;101692.88;1757702;81;21470;-76
2021/11/05 06:43:09;;;;;;;25.23;20.85;;;;;;;15.32;80.66;101697.52;1757689;80;20932;-75
2021/11/05 06:45:37;;;;;;;24.30;21.70;;;;;;;15.37;80.42;101701.19;1757793;80;21465;-76
2021/11/05 06:48:04;;;;;;;22.73;19.73;;;;;;;15.39;80.13;101701.47;1757774;81;20940;-76
2021/11/05 06:50:31;;;;;;;22.42;19.10;;;;;;;15.42;79.96;101703.06;1757999;81;21478;-76
2021/11/05 06:52:58;;;;;;;26.02;20.37;;;;;;;15.40;79.89;101697.86;1757797;81;20936;-78
2021/11/05 06:55:25;;;;;;;23.50;20.25;;;;;;;15.44;79.90;101704.66;1757764;81;20988;-76
2021/11/05 06:57:52;;;;;;;20.77;18.17;;;;;;;15.47;79.73;101710.22;1757764;81;21148;-75
2021/11/05 07:00:19;;;;;;;20.15;17.90;;;;;;;15.49;79.57;101704.36;1757974;81;20922;-77
2021/11/05 07:02:46;;;;;;;21.40;17.62;;;;;;;15.47;79.35;101705.80;1757668;81;20928;-75
2021/11/05 07:05:15;;;;;;;19.50;17.35;;;;;;;15.48;79.41;101700.04;1758151;80;21473;-75
2021/11/05 07:07:42;;;;;;;22.55;19.23;;;;;;;15.45;79.38;101709.02;1758050;81;20857;-76
2021/11/05 07:10:10;;;;;;;22.40;19.30;;;;;;;15.44;79.45;101721.00;1758280;80;21540;-78
2021/11/05 07:12:38;;;;;;;26.57;20.75;;;;;;;15.44;79.42;101711.75;1758097;81;20956;-76
2021/11/05 07:15:06;;;;;;;29.82;23.47;;;;;;;15.41;79.50;101714.11;1758590;81;20936;-78
2021/11/05 07:17:35;;;;;;;26.00;21.68;;;;;;;15.43;79.61;101717.96;1758207;81;21327;-77
2021/11/05 07:20:02;;;;;;;27.87;22.17;;;;;;;15.47;79.58;101722.11;1758448;81;20877;-77
2021/11/05 07:22:29;;;;;;;24.77;21.90;;;;;;;15.50;79.39;101718.81;1758079;80;21118;-76
2021/11/05 07:24:57;;;;;;;25.12;19.87;;;;;;;15.51;79.35;101706.44;1757971;80;21357;-78
2021/11/05 07:27:24;;;;;;;24.27;20.00;;;;;;;15.49;79.40;101711.81;1758394;81;21003;-77
2021/11/05 07:29:51;;;;;;;24.72;19.48;;;;;;;15.50;79.28;101706.08;1758415;80;20881;-80
2021/11/05 07:32:18;;;;;;;23.50;20.08;;;;;;;15.50;79.15;101701.63;1758257;81;21383;-82
2021/11/05 07:34:48;;;;;;;22.93;20.05;;;;;;;15.52;79.26;101710.80;1758160;80;21151;-77
2021/11/05 07:37:16;;;;;;;25.25;18.70;;;;;;;15.58;79.18;101710.38;1758598;80;20990;-79
2021/11/05 07:39:43;;;;;;;24.32;20.57;;;;;;;15.64;78.91;101710.00;1758761;81;20959;-77
2021/11/05 07:42:10;;;;;;;27.15;21.48;;;;;;;15.71;78.75;101717.10;1758970;81;20904;-78
2021/11/05 07:44:39;;;;;;;27.58;22.35;;;;;;;15.80;78.57;101721.80;1758221;81;21401;-79
2021/11/05 07:47:06;;;;;;;25.02;22.32;;;;;;;15.92;78.37;101714.89;1758348;81;21142;-79
2021/11/05 07:49:33;;;;;;;25.20;21.52;;;;;;;16.02;77.98;101721.73;1757918;81;20852;-78
2021/11/05 07:52:00;;;;;;;22.52;19.98;;;;;;;16.11;77.77;101714.52;1758269;81;20940;-79
2021/11/05 07:54:28;;;;;;;27.25;21.80;;;;;;;16.18;77.13;101716.28;1757960;80;21430;-80
2021/11/05 07:56:55;;;;;;;23.18;20.05;;;;;;;16.22;76.97;101721.75;1758194;81;20956;-79
2021/11/05 07:59:22;;;;;;;25.52;20.05;;;;;;;16.33;76.76;101712.62;1757927;81;21128;-78
2021/11/05 08:01:49;;;;;;;28.42;22.20;;;;;;;16.44;76.12;101719.84;1758365;80;21411;-80
2021/11/05 08:04:16;;;;;;;30.15;21.37;;;;;;;16.51;76.00;101716.67;1758052;81;20896;-78
2021/11/05 08:06:43;;;;;;;25.30;21.10;;;;;;;16.60;75.37;101716.52;1758229;81;21018;-80
2021/11/05 08:09:11;;;;;;;24.65;20.35;;;;;;;16.72;75.18;101724.13;1757910;81;20932;-78
2021/11/05 08:11:39;;;;;;;25.10;20.77;;;;;;;16.82;74.76;101729.67;1757914;80;21131;-79
2021/11/05 08:14:06;;;;;;;26.12;21.37;;;;;;;16.91;74.48;101738.30;1757840;81;20963;-77
2021/11/05 08:16:35;;;;;;;25.02;21.23;;;;;;;16.96;73.95;101726.45;1758032;80;20916;-80
2021/11/05 08:19:01;;;;;;;26.07;20.52;;;;;;;17.02;73.36;101735.77;1758133;81;20845;-80
2021/11/05 08:21:28;;;;;;;26.17;19.70;;;;;;;17.04;73.06;101735.18;1758190;81;20865;-80
2021/11/05 08:23:55;;;;;;;25.40;21.07;;;;;;;17.08;72.88;101739.80;1757911;81;21130;-79
2021/11/05 08:26:22;;;;;;;23.85;20.55;;;;;;;17.11;72.87;101743.06;1758375;81;21342;-81
2021/11/05 08:28:49;;;;;;;23.35;18.25;;;;;;;17.26;72.50;101742.97;1758110;81;20920;-82
2021/11/05 08:31:16;;;;;;;26.00;21.07;;;;;;;17.26;72.50;101742.97;1758333;81;20939;-82
2021/11/05 08:33:43;;;;;;;29.10;21.48;;;;;;;17.39;71.95;101747.29;1758245;81;21523;-85
2021/11/05 08:36:12;;;;;;;24.77;20.35;;;;;;;17.39;71.95;101747.29;1741585;81;21064;-84
2021/11/05 08:38:41;;;;;;;22.95;19.85;;;;;;;17.42;71.75;101746.22;1757999;81;21637;-83
2021/11/05 08:41:08;;;;;;;24.32;19.48;;;;;;;17.45;71.68;101742.50;1758181;81;20935;-84
2021/11/05 08:43:35;;;;;;;21.87;19.50;;;;;;;17.49;71.57;101736.02;1758682;80;20998;-84
2021/11/05 08:46:03;;;;;;;21.85;18.35;;;;;;;17.53;71.57;101734.84;1758516;80;20948;-85
2021/11/05 08:48:30;;;;;;;22.67;18.67;;;;;;;17.57;71.24;101739.83;1758374;81;21799;-83
2021/11/05 08:51:02;;;;;;;26.48;18.65;;;;;;;17.61;71.19;101735.16;1757711;80;20997;-83
2021/11/05 08:53:33;;;;;;;29.98;19.77;;;;;;;17.64;71.40;101732.27;1759219;81;20888;-85
2021/11/05 08:56:05;;;;;;;22.32;19.15;;;;;;;17.69;71.19;101737.24;1741340;81;20995;-84
2021/11/05 08:58:32;;;;;;;24.37;19.12;;;;;;;17.73;70.67;101750.17;1759397;80;21354;-86
2021/11/05 09:00:59;;;;;;;24.00;20.15;;;;;;;17.77;70.37;101738.39;1758807;80;21120;-84
2021/11/05 09:03:26;;;;;;;20.12;17.67;;;;;;;17.78;70.41;101731.27;1758842;81;20982;-86
2021/11/05 09:05:54;;;;;;;19.80;17.40;;;;;;;17.81;69.87;101737.23;1758653;81;21003;-87
2021/11/05 09:08:21;;;;;;;20.77;17.12;;;;;;;17.81;70.04;101727.95;1758855;80;20939;-85
2021/11/05 09:10:49;;;;;;;20.17;16.67;;;;;;;17.97;70.07;101722.36;1758707;81;20880;-86
2021/11/05 09:13:16;;;;;;;21.87;17.95;;;;;;;18.29;69.53;101728.89;1758548;81;21147;-85
2021/11/05 09:15:43;;;;;;;20.50;17.40;;;;;;;18.59;68.37;101715.95;1758534;80;21374;-86
2021/11/05 09:18:10;;;;;;;26.05;21.80;;;;;;;18.83;67.14;101717.70;1759087;81;20928;-85
2021/11/05 09:20:37;;;;;;;20.35;17.02;;;;;;;19.01;66.49;101720.77;1759565;81;20979;-84
2021/11/05 09:23:04;;;;;;;20.90;16.90;;;;;;;19.27;65.67;101714.70;1759604;81;20920;-85
2021/11/05 09:25:32;;;;;;;20.37;18.17;;;;;;;19.34;64.86;101715.06;1743077;81;21141;-83
2021/11/05 09:27:59;;;;;;;21.82;17.62;;;;;;;19.30;64.85;101721.13;1761465;78;20880;-86
2021/11/05 09:30:26;;;;;;;19.30;17.27;;;;;;;19.26;65.05;101725.00;1761012;80;21114;-85
2021/11/05 09:32:59;;;;;;;19.05;17.00;;;;;;;19.19;65.09;101729.11;1760674;81;20944;-86
2021/11/05 09:35:26;;;;;;;20.43;17.85;;;;;;;19.07;65.05;101722.09;1758711;81;20990;-86
2021/11/05 09:37:53;;;;;;;18.45;15.75;;;;;;;18.89;65.60;101719.89;1758523;80;21119;-85
2021/11/05 09:40:24;;;;;;;21.07;17.10;;;;;;;18.74;66.23;101719.25;1758779;81;20884;-85
2021/11/05 09:42:52;;;;;;;21.02;18.70;;;;;;;18.60;66.72;101717.63;1758991;81;20884;-85
2021/11/05 09:45:20;;;;;;;19.57;17.37;;;;;;;18.47;67.08;101720.86;1759225;81;20912;-84
2021/11/05 09:47:47;;;;;;;22.77;18.17;;;;;;;18.36;67.43;101718.17;1758868;81;20940;-84
2021/11/05 09:50:17;;;;;;;19.10;16.80;;;;;;;18.27;67.86;101718.87;1758959;80;21100;-83
2021/11/05 09:52:46;;;;;;;18.35;16.48;;;;;;;18.12;68.13;101713.76;1758721;81;20927;-85
2021/11/05 09:55:15;;;;;;;21.10;18.12;;;;;;;18.02;68.60;101712.73;1759446;81;21002;-83
2021/11/05 09:57:42;;;;;;;20.97;18.17;;;;;;;17.99;68.97;101701.03;1758974;81;20968;-81
2021/11/05 10:00:11;;;;;;;23.85;19.30;;;;;;;17.98;69.39;101699.31;1758763;80;20900;-83
2021/11/05 10:02:42;;;;;;;21.20;17.60;;;;;;;18.00;69.47;101686.78;1758939;81;21863;-84
2021/11/05 10:05:11;;;;;;;19.98;17.65;;;;;;;18.36;68.43;101679.20;1758762;81;20885;-84
2021/11/05 10:07:54;;;;;;;20.62;17.45;;;;;;;18.36;68.43;101679.20;1742520;81;20873;-84
2021/11/05 10:10:30;;;;;;;18.80;16.30;;;;;;;18.64;67.53;101679.73;1759793;81;20892;-87
2021/11/05 10:13:05;;;;;;;18.87;16.50;;;;;;;18.97;67.15;101686.08;1758715;81;21342;-85
2021/11/05 10:15:45;;;;;;;19.23;17.23;;;;;;;19.27;66.27;101680.13;1758822;81;21144;-82
2021/11/05 10:18:19;;;;;;;17.92;15.98;;;;;;;19.64;64.73;101678.00;1758409;81;21362;-83
2021/11/05 10:20:49;;;;;;;19.02;17.05;;;;;;;19.96;64.00;101675.86;1758703;81;20924;-84
2021/11/05 10:23:16;;;;;;;17.92;16.15;;;;;;;20.14;63.06;101684.14;1756041;81;20940;-84
2021/11/05 10:25:48;;;;;;;17.73;15.88;;;;;;;20.29;62.63;101685.52;1758075;80;20912;-84
2021/11/05 10:28:25;;;;;;;17.52;15.72;;;;;;;20.41;61.69;101688.98;1758111;80;21222;-84
2021/11/05 10:31:06;;;;;;;18.30;16.40;;;;;;;20.46;61.41;101679.27;1758125;81;20916;-84
2021/11/05 10:33:40;;;;;;;18.77;16.87;;;;;;;20.56;61.26;101676.16;1758223;80;21466;-85
2021/11/05 10:36:10;;;;;;;18.57;16.67;;;;;;;20.59;61.20;101680.44;1757365;81;20885;-83
2021/11/05 10:38:41;;;;;;;19.50;17.42;;;;;;;20.55;61.23;101674.97;1758461;80;20975;-84
2021/11/05 10:41:10;;;;;;;19.85;17.52;;;;;;;20.53;61.45;101672.92;1758323;80;21473;-82
2021/11/05 10:43:49;;;;;;;20.70;18.57;;;;;;;20.44;61.34;101674.06;1758780;81;20932;-85
2021/11/05 10:46:34;;;;;;;18.92;16.82;;;;;;;20.34;61.67;101673.14;1758926;80;20932;-81
2021/11/05 10:49:06;;;;;;;20.77;18.60;;;;;;;20.26;61.96;101679.62;1758340;80;21394;-86
2021/11/05 10:51:35;;;;;;;19.70;17.60;;;;;;;20.18;62.04;101685.58;1756716;81;20964;-85
2021/11/05 10:54:02;;;;;;;20.60;15.60;;;;;;;20.04;62.31;101690.73;1758443;80;21088;-85
2021/11/05 10:56:31;;;;;;;16.45;14.73;;;;;;;19.92;62.34;101690.89;1758081;81;20923;-86
2021/11/05 10:59:01;;;;;;;16.93;14.75;;;;;;;19.75;62.87;101680.32;1758031;80;20928;-87
2021/11/05 11:01:36;;;;;;;19.65;15.50;;;;;;;19.64;63.33;101676.67;1758093;80;21473;-86
2021/11/05 11:04:05;;;;;;;16.75;15.15;;;;;;;19.54;63.88;101675.75;1758120;81;20860;-85
2021/11/05 11:06:40;;;;;;;19.30;15.60;;;;;;;19.47;64.02;101674.53;1758113;81;21139;-83
2021/11/05 11:09:17;;;;;;;19.15;16.77;;;;;;;19.36;64.05;101666.08;1758267;80;21445;-87
2021/11/05 11:11:51;;;;;;;18.27;15.95;;;;;;;19.23;64.45;101667.58;1758631;81;21385;-87
2021/11/05 11:14:23;;;;;;;18.77;16.15;;;;;;;19.15;64.98;101663.34;1758607;81;21378;-82